createdAt,value
2018-04-07T00:01:24.540Z,5.79
2018-04-07T00:04:27.878Z,5.77
2018-04-07T00:07:32.029Z,5.69
2018-04-07T00:10:35.382Z,5.62
2018-04-07T00:13:38.786Z,5.66
2018-04-07T00:16:42.166Z,5.57
2018-04-07T00:19:47.027Z,5.55
2018-04-07T00:22:51.145Z,5.60
2018-04-07T00:25:55.278Z,5.62
2018-04-07T00:28:58.705Z,5.50
2018-04-07T00:32:02.071Z,5.49
2018-04-07T00:35:06.401Z,5.50
2018-04-07T00:38:09.750Z,5.40
2018-04-07T00:41:13.205Z,5.47
2018-04-07T00:44:16.590Z,5.48
2018-04-07T00:47:20.875Z,5.41
2018-04-07T00:50:25.003Z,5.53
2018-04-07T00:53:28.362Z,5.47
2018-04-07T00:56:31.757Z,5.38
2018-04-07T00:59:35.280Z,5.36
2018-04-07T01:02:38.673Z,5.33
2018-04-07T01:05:42.011Z,5.23
2018-04-07T01:08:45.524Z,5.22
2018-04-07T01:11:49.647Z,5.22
2018-04-07T01:14:53.829Z,5.22
2018-04-07T01:17:58.753Z,5.29
2018-04-07T01:21:02.154Z,5.24
2018-04-07T01:24:05.505Z,5.32
2018-04-07T01:27:09.650Z,5.34
2018-04-07T01:30:13.014Z,5.31
2018-04-07T01:33:17.149Z,5.20
2018-04-07T01:36:20.506Z,5.08
2018-04-07T01:39:23.886Z,5.09
2018-04-07T01:42:27.202Z,5.06
2018-04-07T01:45:30.557Z,5.01
2018-04-07T01:48:33.910Z,4.97
2018-04-07T01:51:38.022Z,4.91
2018-04-07T01:54:41.378Z,4.89
2018-04-07T01:57:44.750Z,4.92
2018-04-07T02:00:48.104Z,4.87
2018-04-07T02:03:52.225Z,4.91
2018-04-07T02:06:57.068Z,5.00
2018-04-07T02:10:00.421Z,4.98
2018-04-07T02:13:03.769Z,4.90
2018-04-07T02:16:07.244Z,4.90
2018-04-07T02:19:10.608Z,4.89
2018-04-07T02:22:13.951Z,4.83
2018-04-07T02:25:18.084Z,4.79
2018-04-07T02:28:22.192Z,4.77
2018-04-07T02:31:27.048Z,4.83
2018-04-07T02:34:31.166Z,4.79
2018-04-07T02:37:35.288Z,4.79
2018-04-07T02:40:39.487Z,4.77
2018-04-07T02:43:43.631Z,4.75
2018-04-07T02:46:47.009Z,4.78
2018-04-07T02:49:51.148Z,4.78
2018-04-07T02:52:54.532Z,4.78
2018-04-07T02:55:58.656Z,4.81
2018-04-07T02:59:02.754Z,4.87
2018-04-07T03:02:07.054Z,4.80
2018-04-07T03:05:11.183Z,4.83
2018-04-07T03:08:14.527Z,4.82
2018-04-07T03:11:17.900Z,4.85
2018-04-07T03:14:22.046Z,4.86
2018-04-07T03:17:25.402Z,4.82
2018-04-07T03:20:28.902Z,4.77
2018-04-07T03:23:32.248Z,4.73
2018-04-07T03:26:35.637Z,4.73
2018-04-07T03:29:39.045Z,4.75
2018-04-07T03:32:43.129Z,4.73
2018-04-07T03:35:47.250Z,4.74
2018-04-07T03:38:51.394Z,4.76
2018-04-07T03:41:54.878Z,4.83
2018-04-07T03:44:58.224Z,4.88
2018-04-07T03:48:01.561Z,4.87
2018-04-07T03:51:05.674Z,4.84
2018-04-07T03:54:09.877Z,4.89
2018-04-07T03:57:13.266Z,4.94
2018-04-07T04:00:16.605Z,4.95
2018-04-07T04:03:19.974Z,4.96
2018-04-07T04:06:23.335Z,4.95
2018-04-07T04:09:26.782Z,4.96
2018-04-07T04:12:30.131Z,4.97
2018-04-07T04:15:33.586Z,4.99
2018-04-07T04:18:37.734Z,5.03
2018-04-07T04:21:41.138Z,5.08
2018-04-07T04:24:44.519Z,5.04
2018-04-07T04:27:47.869Z,4.93
2018-04-07T04:30:51.234Z,4.96
2018-04-07T04:33:54.586Z,4.93
2018-04-07T04:36:57.930Z,4.97
2018-04-07T04:40:01.264Z,4.96
2018-04-07T04:43:04.711Z,4.99
2018-04-07T04:46:08.869Z,5.03
2018-04-07T04:49:12.206Z,5.11
2018-04-07T04:52:15.635Z,5.15
2018-04-07T04:55:18.999Z,5.20
2018-04-07T04:58:22.420Z,5.27
2018-04-07T05:01:26.553Z,5.38
2018-04-07T05:04:29.899Z,5.39
2018-04-07T05:07:33.434Z,5.38
2018-04-07T05:10:37.698Z,5.43
2018-04-07T05:13:41.082Z,5.53
2018-04-07T05:16:44.531Z,5.53
2018-04-07T05:19:47.876Z,5.63
2018-04-07T05:22:51.218Z,5.62
2018-04-07T05:25:54.545Z,5.71
2018-04-07T05:28:58.658Z,5.80
2018-04-07T05:32:02.783Z,5.84
2018-04-07T05:35:06.910Z,5.88
2018-04-07T05:38:11.057Z,5.95
2018-04-07T05:41:14.547Z,6.02
2018-04-07T05:44:17.887Z,6.00
2018-04-07T05:47:22.737Z,6.17
2018-04-07T05:50:26.072Z,6.08
2018-04-07T05:53:29.667Z,6.12
2018-04-07T05:56:33.097Z,6.16
2018-04-07T05:59:36.571Z,6.28
2018-04-07T06:02:39.930Z,6.32
2018-04-07T06:05:43.993Z,6.47
2018-04-07T06:08:47.353Z,6.51
2018-04-07T06:11:50.740Z,6.56
2018-04-07T06:14:54.862Z,6.64
2018-04-07T06:17:58.200Z,6.76
2018-04-07T06:21:01.670Z,6.92
2018-04-07T06:24:05.111Z,7.02
2018-04-07T06:27:08.508Z,7.19
2018-04-07T06:30:11.850Z,7.21
2018-04-07T06:33:15.198Z,7.35
2018-04-07T06:36:18.560Z,7.29
2018-04-07T06:39:21.930Z,7.42
2018-04-07T06:42:25.265Z,7.43
2018-04-07T06:45:28.687Z,7.42
2018-04-07T06:48:32.825Z,7.46
2018-04-07T06:51:36.182Z,7.56
2018-04-07T06:54:39.610Z,7.62
2018-04-07T06:57:42.960Z,7.74
2018-04-07T07:00:47.816Z,7.80
2018-04-07T07:03:51.929Z,8.01
2018-04-07T07:06:55.311Z,8.15
2018-04-07T07:09:58.679Z,8.37
2018-04-07T07:13:02.053Z,8.46
2018-04-07T07:16:05.422Z,8.48
2018-04-07T07:19:08.894Z,8.63
2018-04-07T07:22:12.254Z,8.93
2018-04-07T07:25:15.694Z,9.02
2018-04-07T07:28:19.254Z,9.08
2018-04-07T07:31:22.614Z,9.30
2018-04-07T07:34:26.754Z,9.58
2018-04-07T07:37:30.970Z,9.74
2018-04-07T07:40:35.130Z,9.87
2018-04-07T07:43:38.494Z,9.86
2018-04-07T07:46:42.779Z,10.17
2018-04-07T07:49:46.113Z,10.42
2018-04-07T07:52:50.243Z,10.42
2018-04-07T07:55:53.626Z,10.59
2018-04-07T07:58:57.766Z,10.60
2018-04-07T08:02:01.133Z,10.83
2018-04-07T08:05:04.513Z,11.02
2018-04-07T08:08:07.959Z,11.23
2018-04-07T08:11:11.317Z,11.28
2018-04-07T08:14:14.684Z,11.47
2018-04-07T08:17:18.047Z,11.49
2018-04-07T08:20:22.181Z,11.60
2018-04-07T08:23:25.650Z,11.68
2018-04-07T08:26:29.032Z,11.62
2018-04-07T08:29:32.482Z,11.64
2018-04-07T08:32:35.841Z,11.72
2018-04-07T08:35:39.204Z,11.94
2018-04-07T08:38:42.561Z,11.82
2018-04-07T08:41:45.973Z,12.25
2018-04-07T08:44:49.464Z,12.39
2018-04-07T08:47:53.586Z,12.44
2018-04-07T08:50:56.936Z,12.55
2018-04-07T08:54:00.293Z,12.73
2018-04-07T08:57:03.680Z,13.05
2018-04-07T09:00:08.005Z,13.05
2018-04-07T09:03:11.366Z,12.87
2018-04-07T09:06:14.725Z,12.86
2018-04-07T09:09:18.095Z,13.13
2018-04-07T09:12:22.232Z,13.39
2018-04-07T09:15:25.627Z,13.40
2018-04-07T09:18:28.987Z,13.39
2018-04-07T09:21:32.427Z,13.37
2018-04-07T09:24:35.793Z,13.69
2018-04-07T09:27:39.167Z,13.84
2018-04-07T09:30:42.568Z,13.79
2018-04-07T09:33:45.934Z,13.73
2018-04-07T09:36:49.446Z,13.71
2018-04-07T09:39:52.814Z,14.02
2018-04-07T09:42:56.912Z,14.34
2018-04-07T09:46:01.136Z,14.71
2018-04-07T09:49:05.531Z,14.63
2018-04-07T09:52:08.906Z,14.80
2018-04-07T09:55:12.283Z,14.87
2018-04-07T09:58:15.666Z,14.89
2018-04-07T10:01:19.840Z,15.10
2018-04-07T10:04:23.205Z,15.17
2018-04-07T10:07:26.583Z,15.16
2018-04-07T10:10:30.711Z,15.16
2018-04-07T10:13:34.143Z,15.17
2018-04-07T10:16:37.564Z,15.29
2018-04-07T10:19:40.953Z,15.46
2018-04-07T10:22:44.499Z,15.49
2018-04-07T10:25:48.635Z,15.48
2018-04-07T10:28:52.071Z,15.74
2018-04-07T10:31:55.498Z,15.73
2018-04-07T10:34:59.034Z,15.73
2018-04-07T10:38:02.442Z,15.80
2018-04-07T10:41:05.813Z,15.90
2018-04-07T10:44:09.978Z,15.91
2018-04-07T10:47:13.344Z,15.80
2018-04-07T10:50:17.466Z,15.88
2018-04-07T10:53:20.838Z,15.76
2018-04-07T10:56:24.211Z,15.90
2018-04-07T10:59:27.578Z,15.71
2018-04-07T11:02:30.941Z,16.04
2018-04-07T11:05:35.138Z,16.22
2018-04-07T11:08:38.514Z,16.24
2018-04-07T11:11:42.067Z,16.08
2018-04-07T11:14:46.329Z,16.02
2018-04-07T11:17:49.702Z,16.17
2018-04-07T11:20:53.071Z,16.65
2018-04-07T11:23:56.458Z,16.44
2018-04-07T11:27:00.640Z,16.62
2018-04-07T11:30:04.114Z,16.65
2018-04-07T11:33:08.272Z,16.90
2018-04-07T11:36:11.653Z,17.09
2018-04-07T11:39:16.079Z,17.28
2018-04-07T11:42:19.425Z,17.25
2018-04-07T11:45:22.782Z,17.31
2018-04-07T11:48:26.154Z,17.37
2018-04-07T11:51:29.523Z,17.80
2018-04-07T11:54:34.387Z,18.02
2018-04-07T11:57:37.859Z,18.00
2018-04-07T12:00:41.392Z,18.06
2018-04-07T12:03:44.772Z,18.16
2018-04-07T12:06:48.942Z,18.05
2018-04-07T12:09:52.296Z,18.05
2018-04-07T12:12:56.424Z,17.68
2018-04-07T12:15:59.793Z,17.15
2018-04-07T12:19:03.281Z,16.74
2018-04-07T12:22:06.726Z,15.84
2018-04-07T12:25:10.208Z,15.09
2018-04-07T12:28:14.354Z,15.06
2018-04-07T12:31:17.717Z,14.93
2018-04-07T12:34:21.099Z,14.75
2018-04-07T12:37:24.474Z,14.54
2018-04-07T12:40:27.862Z,14.78
2018-04-07T12:43:31.234Z,15.05
2018-04-07T12:46:35.379Z,15.26
2018-04-07T12:49:38.794Z,15.29
2018-04-07T12:52:42.157Z,15.40
2018-04-07T12:55:45.724Z,15.28
2018-04-07T12:58:49.090Z,14.91
2018-04-07T13:01:52.437Z,14.79
2018-04-07T13:04:56.617Z,14.32
2018-04-07T13:08:00.180Z,14.34
2018-04-07T13:11:03.546Z,14.59
2018-04-07T13:14:06.935Z,14.72
2018-04-07T13:17:10.293Z,14.71
2018-04-07T13:20:13.648Z,14.61
2018-04-07T13:23:16.986Z,14.56
2018-04-07T13:26:20.345Z,14.46
2018-04-07T13:29:23.705Z,14.21
2018-04-07T13:32:27.093Z,14.10
2018-04-07T13:35:30.482Z,14.19
2018-04-07T13:38:33.833Z,14.38
2018-04-07T13:41:37.268Z,14.48
2018-04-07T13:44:41.431Z,14.50
2018-04-07T13:47:44.890Z,14.70
2018-04-07T13:50:48.257Z,15.02
2018-04-07T13:53:51.703Z,15.20
2018-04-07T13:56:55.094Z,15.47
2018-04-07T13:59:58.481Z,15.31
2018-04-07T14:03:02.626Z,15.30
2018-04-07T14:06:06.010Z,15.40
2018-04-07T14:09:09.468Z,15.46
2018-04-07T14:12:12.831Z,15.51
2018-04-07T14:15:16.179Z,15.44
2018-04-07T14:18:19.576Z,15.30
2018-04-07T14:21:22.934Z,15.17
2018-04-07T14:24:26.317Z,15.04
2018-04-07T14:27:29.701Z,14.88
2018-04-07T14:30:33.052Z,14.63
2018-04-07T14:33:36.422Z,14.82
2018-04-07T14:36:40.616Z,15.00
2018-04-07T14:39:44.008Z,15.20
2018-04-07T14:42:48.135Z,15.18
2018-04-07T14:45:51.541Z,15.24
2018-04-07T14:48:54.914Z,15.18
2018-04-07T14:51:59.062Z,15.24
2018-04-07T14:55:02.450Z,15.18
2018-04-07T14:58:05.847Z,15.26
2018-04-07T15:01:09.211Z,15.34
2018-04-07T15:04:12.610Z,15.27
2018-04-07T15:07:15.989Z,15.08
2018-04-07T15:10:19.388Z,14.81
2018-04-07T15:13:22.762Z,14.53
2018-04-07T15:16:26.147Z,14.41
2018-04-07T15:19:29.505Z,14.57
2018-04-07T15:22:32.872Z,14.83
2018-04-07T15:25:36.241Z,15.01
2018-04-07T15:28:39.608Z,15.34
2018-04-07T15:31:42.982Z,15.62
2018-04-07T15:34:46.356Z,16.04
2018-04-07T15:37:49.716Z,16.03
2018-04-07T15:40:53.874Z,15.65
2018-04-07T15:43:57.282Z,15.45
2018-04-07T15:47:00.664Z,15.79
2018-04-07T15:50:04.041Z,16.12
2018-04-07T15:53:09.020Z,15.84
2018-04-07T15:56:12.990Z,15.76
2018-04-07T15:59:17.702Z,15.65
2018-04-07T16:02:22.222Z,16.03
2018-04-07T16:05:26.519Z,16.17
2018-04-07T16:08:30.492Z,15.94
2018-04-07T16:11:34.062Z,15.33
2018-04-07T16:14:38.321Z,15.09
2018-04-07T16:17:42.261Z,14.99
2018-04-07T16:20:45.762Z,14.65
2018-04-07T16:23:49.189Z,14.28
2018-04-07T16:26:52.572Z,14.12
2018-04-07T16:29:55.953Z,14.27
2018-04-07T16:32:59.313Z,14.35
2018-04-07T16:36:03.457Z,14.51
2018-04-07T16:39:06.844Z,14.80
2018-04-07T16:42:10.262Z,14.91
2018-04-07T16:45:13.674Z,15.10
2018-04-07T16:48:17.059Z,15.26
2018-04-07T16:51:20.438Z,15.46
2018-04-07T16:54:24.585Z,15.65
2018-04-07T16:57:28.127Z,15.72
2018-04-07T17:00:31.539Z,15.90
2018-04-07T17:03:34.953Z,15.91
2018-04-07T17:06:39.191Z,15.91
2018-04-07T17:09:42.585Z,15.92
2018-04-07T17:15:55.550Z,16.10
2018-04-07T17:18:58.890Z,15.95
2018-04-07T17:22:02.533Z,15.78
2018-04-07T17:25:06.053Z,15.65
2018-04-07T17:28:09.642Z,15.23
2018-04-07T17:31:12.995Z,14.59
2018-04-07T17:34:16.529Z,14.12
2018-04-07T17:37:20.725Z,13.79
2018-04-07T17:40:24.153Z,13.55
2018-04-07T17:43:28.570Z,13.36
2018-04-07T17:46:32.742Z,13.23
2018-04-07T17:49:43.609Z,13.10
2018-04-07T17:52:39.578Z,13.03
2018-04-07T17:55:43.261Z,13.19
2018-04-07T17:58:46.644Z,13.08
2018-04-07T18:01:50.033Z,12.83
2018-04-07T18:04:54.218Z,12.33
2018-04-07T18:07:58.477Z,11.89
2018-04-07T18:11:01.847Z,11.50
2018-04-07T18:14:05.255Z,11.25
2018-04-07T18:17:08.635Z,11.06
2018-04-07T18:20:12.795Z,10.83
2018-04-07T18:23:16.175Z,10.71
2018-04-07T18:26:19.552Z,10.50
2018-04-07T18:29:23.681Z,10.29
2018-04-07T18:32:27.063Z,10.15
2018-04-07T18:35:31.200Z,10.04
2018-04-07T18:38:34.594Z,10.00
2018-04-07T18:41:38.185Z,9.96
2018-04-07T18:44:42.493Z,9.96
2018-04-07T18:47:45.850Z,9.88
2018-04-07T18:50:49.230Z,9.93
2018-04-07T18:53:52.629Z,9.89
2018-04-07T18:56:55.999Z,9.78
2018-04-07T19:00:00.192Z,9.83
2018-04-07T19:03:03.578Z,9.73
2018-04-07T19:06:06.951Z,9.68
2018-04-07T19:09:10.367Z,9.57
2018-04-07T19:12:13.779Z,9.43
2018-04-07T19:15:17.172Z,9.35
2018-04-07T19:18:20.537Z,9.24
2018-04-07T19:21:23.890Z,9.12
2018-04-07T19:24:27.246Z,9.03
2018-04-07T19:27:30.631Z,9.07
2018-04-07T19:30:34.759Z,9.03
2018-04-07T19:33:38.143Z,8.96
2018-04-07T19:36:42.475Z,8.91
2018-04-07T19:39:46.059Z,8.91
2018-04-07T19:42:50.220Z,8.81
2018-04-07T19:45:53.607Z,8.78
2018-04-07T19:48:56.988Z,8.73
2018-04-07T19:52:00.381Z,8.68
2018-04-07T19:55:04.466Z,8.64
2018-04-07T19:58:07.843Z,8.65
2018-04-07T20:01:11.230Z,8.63
2018-04-07T20:04:14.609Z,8.62
2018-04-07T20:07:17.995Z,8.59
2018-04-07T20:10:22.325Z,8.59
2018-04-07T20:13:25.770Z,8.69
2018-04-07T20:16:29.167Z,8.73
2018-04-07T20:19:32.523Z,8.67
2018-04-07T20:22:36.030Z,8.72
2018-04-07T20:25:39.386Z,8.71
2018-04-07T20:28:42.771Z,8.62
2018-04-07T20:31:46.174Z,8.52
2018-04-07T20:34:49.558Z,8.45
2018-04-07T20:37:52.930Z,8.57
2018-04-07T20:40:57.222Z,8.65
2018-04-07T20:44:01.383Z,8.56
2018-04-07T20:47:04.821Z,8.51
2018-04-07T20:50:08.188Z,8.58
2018-04-07T20:53:11.575Z,8.34
2018-04-07T20:56:14.945Z,8.25
2018-04-07T20:59:19.082Z,8.18
2018-04-07T21:02:22.465Z,8.13
2018-04-07T21:05:26.617Z,8.06
2018-04-07T21:08:30.099Z,7.92
2018-04-07T21:11:33.479Z,7.81
2018-04-07T21:14:37.609Z,7.72
2018-04-07T21:17:41.079Z,7.71
2018-04-07T21:20:44.426Z,7.63
2018-04-07T21:23:47.989Z,7.51
2018-04-07T21:26:51.381Z,7.40
2018-04-07T21:29:54.747Z,7.31
2018-04-07T21:32:58.119Z,7.27
2018-04-07T21:36:01.481Z,7.23
2018-04-07T21:39:04.915Z,7.19
2018-04-07T21:42:08.300Z,7.17
2018-04-07T21:45:11.763Z,7.12
2018-04-07T21:48:15.177Z,7.05
2018-04-07T21:51:18.554Z,6.99
2018-04-07T21:54:21.910Z,6.98
2018-04-07T21:57:25.284Z,6.96
2018-04-07T22:00:29.430Z,6.97
2018-04-07T22:03:32.817Z,6.95
2018-04-07T22:06:36.938Z,6.90
2018-04-07T22:09:40.429Z,6.88
2018-04-07T22:12:44.563Z,6.86
2018-04-07T22:15:47.989Z,6.79
2018-04-07T22:18:51.434Z,6.72
2018-04-07T22:21:54.811Z,6.74
2018-04-07T22:24:58.171Z,6.70
2018-04-07T22:28:01.529Z,6.63
2018-04-07T22:31:04.894Z,6.50
2018-04-07T22:34:08.445Z,6.41
2018-04-07T22:37:12.632Z,6.36
2018-04-07T22:40:16.125Z,6.34
2018-04-07T22:43:19.524Z,6.34
2018-04-07T22:46:22.906Z,6.31
2018-04-07T22:49:26.281Z,6.26
2018-04-07T22:52:29.667Z,6.25
2018-04-07T22:55:33.802Z,6.23
2018-04-07T22:58:37.294Z,6.19
2018-04-07T23:01:41.429Z,6.16
2018-04-07T23:04:44.803Z,6.12
2018-04-07T23:07:48.946Z,6.10
2018-04-07T23:10:52.427Z,6.13
2018-04-07T23:13:55.762Z,6.14
2018-04-07T23:16:59.143Z,6.13
2018-04-07T23:20:02.525Z,6.09
2018-04-07T23:23:08.727Z,6.06
2018-04-07T23:26:12.326Z,6.05
2018-04-07T23:29:15.715Z,6.01
2018-04-07T23:32:19.229Z,5.98
2018-04-07T23:35:22.609Z,5.95
2018-04-07T23:38:25.986Z,5.95
2018-04-07T23:41:30.237Z,5.95
2018-04-07T23:44:33.598Z,5.96
2018-04-07T23:47:36.980Z,5.94
2018-04-07T23:50:41.120Z,5.93
2018-04-07T23:53:45.340Z,5.91
2018-04-07T23:56:49.479Z,5.94
2018-04-07T23:59:52.852Z,6.01
